createdAt,value
2023-02-06T00:00:25.260Z,36.92
2023-02-06T00:02:55.186Z,37.22
2023-02-06T00:05:25.074Z,34.42
2023-02-06T00:07:54.955Z,34.63
2023-02-06T00:10:27.758Z,32.63
2023-02-06T00:12:57.781Z,33.10
2023-02-06T00:15:27.709Z,31.42
2023-02-06T00:17:57.566Z,32.55
2023-02-06T00:20:27.454Z,33.08
2023-02-06T00:22:57.309Z,32.38
2023-02-06T00:25:29.771Z,40.45
2023-02-06T00:27:59.637Z,32.90
2023-02-06T00:30:29.753Z,37.35
2023-02-06T00:32:59.646Z,36.28
2023-02-06T00:35:29.666Z,37.05
2023-02-06T00:38:00.143Z,36.58
2023-02-06T00:40:32.635Z,35.15
2023-02-06T00:43:02.471Z,35.75
2023-02-06T00:45:32.437Z,40.40
2023-02-06T00:48:02.399Z,33.72
2023-02-06T00:50:32.469Z,32.40
2023-02-06T00:53:02.298Z,25.02
2023-02-06T00:55:34.993Z,26.52
2023-02-06T00:58:05.149Z,30.48
2023-02-06T01:00:35.444Z,27.33
2023-02-06T01:03:05.790Z,30.80
2023-02-06T01:05:35.983Z,30.85
2023-02-06T01:08:06.162Z,22.08
2023-02-06T01:10:38.679Z,29.88
2023-02-06T01:13:08.626Z,24.67
2023-02-06T01:15:39.268Z,27.23
2023-02-06T01:18:09.352Z,25.20
2023-02-06T01:20:39.834Z,24.70
2023-02-06T01:23:10.608Z,22.15
2023-02-06T01:25:43.136Z,28.35
2023-02-06T01:28:13.044Z,25.38
2023-02-06T01:30:43.069Z,22.95
2023-02-06T01:33:12.942Z,24.13
2023-02-06T01:35:42.822Z,22.15
2023-02-06T01:38:12.680Z,22.45
2023-02-06T01:40:45.148Z,21.98
2023-02-06T01:43:21.206Z,24.98
2023-02-06T01:45:51.502Z,24.95
2023-02-06T01:48:35.766Z,22.60
2023-02-06T01:51:08.827Z,22.83
2023-02-06T01:53:39.503Z,23.92
2023-02-06T01:56:12.966Z,22.05
2023-02-06T01:58:46.710Z,23.95
2023-02-06T02:01:16.763Z,23.30
2023-02-06T02:03:52.153Z,22.85
2023-02-06T02:06:27.056Z,25.30
2023-02-06T02:08:59.225Z,26.48
2023-02-06T02:11:35.273Z,24.92
2023-02-06T02:14:10.160Z,23.35
2023-02-06T02:16:52.149Z,19.67
2023-02-06T02:20:10.830Z,21.25
2023-02-06T02:22:55.754Z,21.55
2023-02-06T02:29:18.444Z,19.40
2023-02-06T02:32:32.180Z,19.73
2023-02-06T02:35:25.257Z,21.38
2023-02-06T02:38:06.461Z,26.23
2023-02-06T02:40:48.012Z,19.60
2023-02-06T02:43:36.425Z,20.73
2023-02-06T02:46:15.602Z,18.55
2023-02-06T02:48:49.406Z,22.13
2023-02-06T02:51:22.159Z,21.35
2023-02-06T02:53:52.112Z,20.77
2023-02-06T02:56:26.494Z,21.65
2023-02-06T02:59:01.682Z,18.65
2023-02-06T03:01:36.678Z,21.45
2023-02-06T03:04:11.874Z,20.55
2023-02-06T03:06:58.886Z,20.00
2023-02-06T03:09:44.292Z,20.08
2023-02-06T03:12:22.970Z,22.88
2023-02-06T03:14:59.014Z,20.92
2023-02-06T03:17:39.261Z,23.17
2023-02-06T03:20:12.358Z,17.00
2023-02-06T03:22:47.227Z,22.23
2023-02-06T03:25:23.009Z,24.55
2023-02-06T03:27:56.336Z,18.02
2023-02-06T03:30:27.651Z,22.08
2023-02-06T03:33:04.613Z,20.88
2023-02-06T03:35:38.972Z,21.13
2023-02-06T03:38:12.210Z,23.85
2023-02-06T03:40:43.977Z,25.33
2023-02-06T03:43:18.896Z,25.40
2023-02-06T03:45:53.282Z,24.02
2023-02-06T03:48:30.327Z,23.13
2023-02-06T03:51:05.454Z,19.20
2023-02-06T03:53:40.426Z,26.02
2023-02-06T03:56:14.822Z,20.73
2023-02-06T03:58:44.786Z,20.83
2023-02-06T04:01:15.520Z,23.90
2023-02-06T04:03:45.422Z,22.65
2023-02-06T04:06:15.341Z,17.40
2023-02-06T04:08:47.970Z,20.80
2023-02-06T04:11:18.024Z,17.55
2023-02-06T04:13:47.924Z,23.17
2023-02-06T04:16:17.932Z,22.05
2023-02-06T04:18:48.020Z,25.42
2023-02-06T04:21:18.072Z,19.48
2023-02-06T04:23:50.556Z,24.27
2023-02-06T04:26:20.515Z,20.63
2023-02-06T04:28:50.387Z,29.48
2023-02-06T04:31:20.478Z,23.05
2023-02-06T04:33:51.295Z,20.02
2023-02-06T04:36:21.236Z,26.08
2023-02-06T04:38:53.865Z,21.40
2023-02-06T04:41:23.967Z,19.02
2023-02-06T04:43:55.119Z,21.25
2023-02-06T04:46:25.253Z,19.88
2023-02-06T04:48:55.402Z,21.38
2023-02-06T04:51:25.386Z,24.20
2023-02-06T04:53:57.882Z,22.15
2023-02-06T04:56:28.223Z,23.58
2023-02-06T04:58:58.225Z,20.80
2023-02-06T05:01:28.634Z,23.15
2023-02-06T05:03:58.536Z,21.27
2023-02-06T05:06:29.737Z,20.45
2023-02-06T05:09:02.709Z,20.15
2023-02-06T05:11:32.585Z,23.35
2023-02-06T05:14:02.610Z,23.42
2023-02-06T05:16:32.537Z,24.10
2023-02-06T05:19:02.640Z,25.73
2023-02-06T05:21:32.638Z,23.58
2023-02-06T05:24:05.106Z,25.00
2023-02-06T05:26:34.988Z,22.15
2023-02-06T05:29:04.892Z,24.88
2023-02-06T05:31:34.890Z,21.38
2023-02-06T05:34:04.883Z,20.10
2023-02-06T05:36:34.742Z,23.02
2023-02-06T05:39:07.389Z,22.70
2023-02-06T05:41:37.250Z,23.92
2023-02-06T05:44:07.620Z,31.08
2023-02-06T05:46:37.566Z,26.45
2023-02-06T05:49:08.182Z,28.27
2023-02-06T05:51:38.051Z,20.30
2023-02-06T05:54:10.610Z,28.70
2023-02-06T05:56:40.488Z,31.50
2023-02-06T05:59:10.394Z,26.00
2023-02-06T06:01:40.282Z,26.80
2023-02-06T06:04:10.240Z,24.55
2023-02-06T06:06:40.246Z,23.58
2023-02-06T06:09:12.735Z,25.10
2023-02-06T06:11:42.679Z,22.90
2023-02-06T06:14:14.151Z,24.40
2023-02-06T06:16:44.037Z,24.60
2023-02-06T06:19:14.028Z,27.05
2023-02-06T06:21:43.934Z,26.65
2023-02-06T06:24:16.474Z,30.88
2023-02-06T06:26:46.621Z,26.27
2023-02-06T06:29:16.493Z,26.35
2023-02-06T06:31:46.458Z,25.48
2023-02-06T06:34:16.405Z,25.92
2023-02-06T06:36:46.364Z,28.02
2023-02-06T06:39:18.866Z,26.38
2023-02-06T06:41:48.772Z,26.30
2023-02-06T06:44:18.670Z,26.35
2023-02-06T06:46:48.555Z,28.08
2023-02-06T06:49:18.569Z,27.88
2023-02-06T06:51:48.436Z,25.30
2023-02-06T06:54:22.150Z,32.10
2023-02-06T06:56:52.131Z,25.35
2023-02-06T06:59:22.061Z,27.58
2023-02-06T07:01:52.614Z,27.20
2023-02-06T07:04:23.122Z,30.00
2023-02-06T07:06:53.043Z,28.15
2023-02-06T07:09:25.747Z,26.13
2023-02-06T07:11:55.673Z,31.00
2023-02-06T07:14:25.843Z,27.92
2023-02-06T07:16:56.320Z,29.80
2023-02-06T07:19:26.247Z,31.35
2023-02-06T07:21:56.209Z,27.77
2023-02-06T07:24:28.651Z,32.35
2023-02-06T07:26:59.011Z,31.38
2023-02-06T07:29:28.929Z,31.92
2023-02-06T07:31:58.916Z,29.13
2023-02-06T07:34:29.208Z,31.48
2023-02-06T07:36:59.837Z,30.88
2023-02-06T07:39:32.361Z,34.63
2023-02-06T07:42:02.222Z,33.58
2023-02-06T07:44:32.076Z,30.35
2023-02-06T07:47:02.360Z,30.20
2023-02-06T07:49:32.214Z,29.52
2023-02-06T07:52:02.092Z,32.65
2023-02-06T07:54:34.969Z,28.55
2023-02-06T07:57:04.923Z,30.08
2023-02-06T07:59:34.898Z,31.45
2023-02-06T08:02:04.805Z,26.83
2023-02-06T08:04:36.070Z,28.40
2023-02-06T08:07:06.413Z,32.42
2023-02-06T08:09:39.009Z,37.05
2023-02-06T08:12:11.697Z,32.63
2023-02-06T08:14:45.813Z,32.83
2023-02-06T08:17:17.478Z,31.25
2023-02-06T08:19:48.250Z,30.33
2023-02-06T08:22:18.490Z,33.15
2023-02-06T08:24:50.985Z,33.40
2023-02-06T08:27:20.940Z,32.75
2023-02-06T08:29:51.774Z,43.25
2023-02-06T08:32:22.004Z,35.85
2023-02-06T08:34:51.920Z,36.05
2023-02-06T08:37:22.085Z,32.88
2023-02-06T08:39:54.686Z,29.98
2023-02-06T08:42:24.653Z,31.77
2023-02-06T08:44:55.046Z,36.58
2023-02-06T08:47:24.967Z,33.25
2023-02-06T08:49:54.857Z,38.90
2023-02-06T08:52:25.329Z,36.78
2023-02-06T08:54:57.788Z,35.92
2023-02-06T08:57:27.703Z,34.40
2023-02-06T08:59:57.946Z,33.65
2023-02-06T09:02:27.818Z,34.22
2023-02-06T09:04:57.702Z,38.72
2023-02-06T09:07:27.566Z,34.75
2023-02-06T09:10:00.122Z,37.40
2023-02-06T09:12:29.994Z,38.75
2023-02-06T09:14:59.881Z,38.47
2023-02-06T09:17:31.611Z,36.47
2023-02-06T09:20:01.662Z,35.65
2023-02-06T09:22:34.099Z,40.47
2023-02-06T09:25:06.678Z,35.83
2023-02-06T09:27:36.578Z,46.47
2023-02-06T09:30:07.770Z,51.75
2023-02-06T09:32:37.963Z,42.22
2023-02-06T09:35:09.300Z,46.40
2023-02-06T09:37:39.197Z,43.17
2023-02-06T09:40:15.571Z,42.88
2023-02-06T09:42:47.164Z,38.47
2023-02-06T09:45:23.073Z,49.35
2023-02-06T09:47:57.078Z,55.83
2023-02-06T09:50:33.421Z,59.05
2023-02-06T09:53:16.638Z,44.30
2023-02-06T09:55:54.041Z,47.60
2023-02-06T09:58:29.627Z,51.55
2023-02-06T10:01:10.408Z,50.53
2023-02-06T10:04:02.220Z,53.35
2023-02-06T10:06:39.464Z,50.38
2023-02-06T10:09:15.957Z,52.65
2023-02-06T10:11:54.526Z,50.80
2023-02-06T10:14:31.408Z,48.05
2023-02-06T10:17:04.363Z,46.15
2023-02-06T10:19:44.015Z,49.03
2023-02-06T10:22:21.156Z,55.05
2023-02-06T10:25:00.848Z,57.80
2023-02-06T10:27:36.267Z,49.65
2023-02-06T10:30:07.777Z,50.60
2023-02-06T10:32:50.786Z,54.83
2023-02-06T10:35:35.160Z,52.33
2023-02-06T10:38:45.584Z,48.60
2023-02-06T10:41:26.779Z,43.20
2023-02-06T10:44:04.874Z,42.47
2023-02-06T10:46:44.895Z,48.38
2023-02-06T10:49:24.966Z,42.45
2023-02-06T10:51:59.134Z,45.53
2023-02-06T10:54:34.611Z,46.03
2023-02-06T10:57:06.354Z,33.08
2023-02-06T10:59:48.062Z,44.50
2023-02-06T11:02:24.650Z,37.97
2023-02-06T11:05:02.217Z,40.45
2023-02-06T11:07:36.877Z,40.78
2023-02-06T11:12:42.076Z,37.97
2023-02-06T11:15:26.270Z,40.80
2023-02-06T11:17:57.406Z,45.77
2023-02-06T11:20:33.302Z,40.42
2023-02-06T11:23:20.047Z,39.47
2023-02-06T11:26:09.030Z,42.22
2023-02-06T11:28:43.254Z,40.60
2023-02-06T11:31:15.843Z,37.65
2023-02-06T11:33:53.946Z,36.65
2023-02-06T11:36:30.556Z,34.08
2023-02-06T11:39:03.037Z,33.65
2023-02-06T11:41:34.385Z,33.10
2023-02-06T11:44:06.680Z,33.40
2023-02-06T11:46:40.421Z,34.00
2023-02-06T11:49:29.231Z,31.48
2023-02-06T11:52:03.819Z,34.08
2023-02-06T11:54:36.696Z,26.77
2023-02-06T11:57:11.108Z,31.30
2023-02-06T11:59:55.018Z,29.15
2023-02-06T12:02:32.353Z,27.90
2023-02-06T12:05:07.769Z,25.92
2023-02-06T12:07:45.698Z,31.02
2023-02-06T12:10:18.582Z,31.05
2023-02-06T12:12:53.377Z,31.70
2023-02-06T12:15:45.395Z,26.70
2023-02-06T12:18:23.585Z,32.10
2023-02-06T12:20:59.058Z,26.48
2023-02-06T12:23:36.212Z,32.45
2023-02-06T12:26:11.849Z,32.50
2023-02-06T12:28:52.235Z,32.78
2023-02-06T12:31:32.204Z,30.15
2023-02-06T12:34:14.195Z,27.83
2023-02-06T12:37:00.136Z,21.95
2023-02-06T12:39:35.116Z,26.10
2023-02-06T12:42:36.307Z,21.60
2023-02-06T12:45:31.691Z,30.50
2023-02-06T12:50:45.700Z,24.90
2023-02-06T12:53:28.143Z,28.05
2023-02-06T12:56:06.742Z,27.95
2023-02-06T12:59:03.304Z,29.30
2023-02-06T13:01:56.184Z,28.25
2023-02-06T13:04:29.660Z,23.38
2023-02-06T13:07:09.912Z,25.55
2023-02-06T13:09:43.501Z,24.17
2023-02-06T13:12:18.222Z,28.58
2023-02-06T13:17:23.280Z,25.27
2023-02-06T13:20:03.296Z,26.70
2023-02-06T13:22:50.428Z,29.67
2023-02-06T13:25:56.220Z,28.33
2023-02-06T13:31:35.511Z,22.63
2023-02-06T13:34:10.994Z,24.58
2023-02-06T13:36:51.995Z,24.02
2023-02-06T13:39:35.045Z,26.08
2023-02-06T13:42:35.442Z,24.98
2023-02-06T13:45:08.645Z,27.70
2023-02-06T13:48:20.067Z,25.42
2023-02-06T13:51:32.939Z,25.02
2023-02-06T13:54:44.070Z,28.23
2023-02-06T13:57:31.276Z,21.15
2023-02-06T14:00:05.810Z,23.77
2023-02-06T14:02:40.919Z,29.92
2023-02-06T14:05:16.429Z,21.85
2023-02-06T14:08:16.325Z,25.25
2023-02-06T14:11:14.541Z,25.35
2023-02-06T14:14:02.792Z,23.60
2023-02-06T14:16:45.913Z,22.73
2023-02-06T14:19:28.634Z,21.45
2023-02-06T14:22:06.498Z,25.90
2023-02-06T14:25:04.648Z,22.08
2023-02-06T14:27:54.122Z,21.77
2023-02-06T14:30:36.130Z,22.42
2023-02-06T14:33:25.234Z,18.95
2023-02-06T14:36:09.328Z,22.80
2023-02-06T14:39:12.839Z,23.27
2023-02-06T14:41:42.960Z,22.90
2023-02-06T14:44:23.380Z,24.02
2023-02-06T14:46:53.458Z,23.15
2023-02-06T14:49:33.702Z,18.95
2023-02-06T14:52:04.830Z,19.65
2023-02-06T14:54:38.413Z,23.05
2023-02-06T14:57:17.283Z,24.80
2023-02-06T15:00:02.505Z,23.42
2023-02-06T15:02:39.163Z,23.27
2023-02-06T15:05:09.561Z,21.83
2023-02-06T15:07:41.606Z,21.17
2023-02-06T15:10:17.900Z,21.73
2023-02-06T15:12:55.033Z,21.52
2023-02-06T15:15:30.004Z,21.48
2023-02-06T15:18:02.947Z,21.52
2023-02-06T15:20:38.357Z,19.77
2023-02-06T15:23:18.086Z,21.20
2023-02-06T15:26:06.836Z,29.70
2023-02-06T15:28:39.418Z,20.00
2023-02-06T15:31:20.863Z,21.98
2023-02-06T15:33:53.571Z,25.13
2023-02-06T15:36:26.897Z,19.90
2023-02-06T15:38:56.903Z,22.70
2023-02-06T15:41:27.023Z,23.20
2023-02-06T15:44:03.677Z,24.92
2023-02-06T15:46:36.497Z,19.25
2023-02-06T15:49:11.076Z,22.08
2023-02-06T15:51:51.812Z,22.98
2023-02-06T15:54:24.692Z,22.90
2023-02-06T15:57:05.754Z,23.38
2023-02-06T15:59:41.629Z,25.42
2023-02-06T16:02:25.205Z,22.25
2023-02-06T16:04:56.946Z,23.17
2023-02-06T16:07:30.812Z,21.75
2023-02-06T16:10:06.980Z,24.87
2023-02-06T16:12:39.480Z,25.73
2023-02-06T16:15:31.794Z,24.05
2023-02-06T16:18:22.265Z,25.42
2023-02-06T16:20:52.301Z,27.08
2023-02-06T16:23:29.184Z,27.40
2023-02-06T16:26:07.406Z,23.92
2023-02-06T16:28:48.524Z,30.50
2023-02-06T16:31:19.238Z,33.67
2023-02-06T16:33:54.185Z,26.08
2023-02-06T16:36:26.841Z,26.13
2023-02-06T16:39:03.571Z,25.88
2023-02-06T16:41:37.630Z,31.67
2023-02-06T16:44:13.213Z,43.10
2023-02-06T16:46:43.210Z,41.60
2023-02-06T16:49:20.194Z,31.17
2023-02-06T16:51:52.933Z,36.15
2023-02-06T16:54:28.524Z,38.67
2023-02-06T16:57:03.746Z,42.05
2023-02-06T16:59:33.652Z,36.17
2023-02-06T17:02:03.581Z,35.55
2023-02-06T17:04:36.100Z,36.30
2023-02-06T17:07:06.063Z,37.40
2023-02-06T17:09:35.983Z,36.45
2023-02-06T17:12:06.037Z,44.70
2023-02-06T17:14:35.938Z,41.05
2023-02-06T17:17:06.640Z,41.97
2023-02-06T17:19:40.073Z,37.38
2023-02-06T17:22:11.987Z,41.72
2023-02-06T17:24:44.092Z,33.88
2023-02-06T17:27:19.978Z,33.70
2023-02-06T17:29:51.307Z,32.13
2023-02-06T17:32:23.014Z,36.30
2023-02-06T17:34:58.268Z,38.00
2023-02-06T17:37:28.166Z,34.15
2023-02-06T17:39:58.055Z,41.10
2023-02-06T17:42:28.088Z,52.35
2023-02-06T17:44:57.971Z,45.85
2023-02-06T17:47:28.059Z,69.15
2023-02-06T17:50:00.762Z,83.00
2023-02-06T17:52:30.672Z,56.13
2023-02-06T17:55:00.551Z,58.13
2023-02-06T17:57:31.077Z,50.25
2023-02-06T18:00:00.973Z,56.88
2023-02-06T18:02:30.987Z,48.45
2023-02-06T18:05:04.188Z,49.78
2023-02-06T18:07:34.238Z,50.85
2023-02-06T18:10:04.163Z,45.83
2023-02-06T18:12:34.225Z,46.40
2023-02-06T18:15:04.482Z,48.55
2023-02-06T18:17:34.364Z,42.78
2023-02-06T18:20:07.800Z,41.20
2023-02-06T18:22:41.339Z,50.80
2023-02-06T18:25:14.594Z,46.67
2023-02-06T18:27:46.323Z,57.17
2023-02-06T18:30:18.755Z,43.88
2023-02-06T18:32:48.651Z,47.88
2023-02-06T18:35:21.298Z,46.22
2023-02-06T18:37:51.838Z,42.50
2023-02-06T18:40:22.411Z,42.28
2023-02-06T18:42:58.282Z,41.83
2023-02-06T18:45:34.265Z,55.08
2023-02-06T18:48:04.819Z,63.08
2023-02-06T18:50:40.665Z,58.83
2023-02-06T18:53:11.413Z,61.40
2023-02-06T18:55:41.373Z,63.10
2023-02-06T18:58:11.452Z,57.20
2023-02-06T19:00:43.404Z,58.20
2023-02-06T19:03:13.383Z,61.35
2023-02-06T19:05:45.847Z,58.22
2023-02-06T19:08:15.734Z,55.28
2023-02-06T19:10:45.693Z,56.10
2023-02-06T19:13:15.581Z,53.70
2023-02-06T19:15:45.469Z,52.65
2023-02-06T19:18:15.358Z,55.30
2023-02-06T19:20:47.811Z,51.42
2023-02-06T19:23:17.770Z,54.03
2023-02-06T19:25:47.690Z,56.97
2023-02-06T19:28:17.573Z,48.65
2023-02-06T19:30:47.493Z,51.78
2023-02-06T19:33:17.674Z,49.60
2023-02-06T19:35:50.179Z,51.67
2023-02-06T19:38:20.073Z,55.70
2023-02-06T19:40:50.003Z,59.63
2023-02-06T19:43:20.002Z,80.72
2023-02-06T19:45:49.924Z,88.25
2023-02-06T19:48:19.820Z,70.40
2023-02-06T19:50:52.285Z,58.33
2023-02-06T19:53:22.157Z,74.65
2023-02-06T19:55:52.361Z,69.28
2023-02-06T19:58:22.232Z,66.97
2023-02-06T20:00:54.728Z,64.10
2023-02-06T20:03:25.311Z,61.75
2023-02-06T20:05:58.456Z,71.60
2023-02-06T20:08:37.283Z,73.03
2023-02-06T20:11:08.744Z,62.22
2023-02-06T20:13:40.098Z,62.35
2023-02-06T20:16:18.178Z,64.93
2023-02-06T20:18:48.049Z,61.78
2023-02-06T20:21:31.399Z,69.72
2023-02-06T20:24:05.132Z,81.45
2023-02-06T20:26:38.214Z,90.78
2023-02-06T20:29:10.049Z,75.53
2023-02-06T20:31:40.044Z,64.75
2023-02-06T20:34:09.996Z,67.07
2023-02-06T20:36:42.471Z,70.50
2023-02-06T20:39:14.940Z,83.80
2023-02-06T20:41:45.572Z,82.43
2023-02-06T20:44:16.882Z,69.05
2023-02-06T20:46:46.905Z,61.63
2023-02-06T20:49:19.752Z,72.60
2023-02-06T20:51:53.436Z,63.60
2023-02-06T20:54:24.961Z,62.25
2023-02-06T20:56:54.973Z,66.47
2023-02-06T20:59:25.766Z,60.83
2023-02-06T21:01:55.741Z,56.13
2023-02-06T21:04:25.737Z,50.60
2023-02-06T21:06:58.238Z,52.35
2023-02-06T21:09:28.285Z,57.20
2023-02-06T21:11:58.156Z,60.75
2023-02-06T21:14:29.999Z,57.20
2023-02-06T21:17:00.309Z,57.75
2023-02-06T21:19:30.189Z,54.40
2023-02-06T21:22:03.160Z,57.92
2023-02-06T21:24:33.080Z,57.85
2023-02-06T21:27:02.941Z,60.42
2023-02-06T21:29:32.839Z,56.70
2023-02-06T21:32:13.042Z,80.00
2023-02-06T21:34:44.586Z,128.82
2023-02-06T21:37:17.051Z,84.28
2023-02-06T21:39:47.408Z,82.05
2023-02-06T21:42:19.274Z,82.15
2023-02-06T21:44:49.312Z,74.25
2023-02-06T21:47:19.468Z,74.90
2023-02-06T21:49:49.345Z,75.35
2023-02-06T21:52:21.813Z,73.10
2023-02-06T21:54:51.701Z,64.47
2023-02-06T21:57:21.747Z,56.80
2023-02-06T21:59:51.637Z,74.32
2023-02-06T22:02:21.526Z,86.95
2023-02-06T22:04:51.400Z,67.25
2023-02-06T22:07:23.854Z,69.13
2023-02-06T22:09:53.733Z,62.72
2023-02-06T22:12:23.621Z,56.08
2023-02-06T22:14:53.507Z,52.05
2023-02-06T22:17:23.408Z,67.15
2023-02-06T22:19:53.418Z,61.60
2023-02-06T22:22:25.915Z,63.55
2023-02-06T22:24:55.774Z,65.13
2023-02-06T22:27:25.721Z,58.20
2023-02-06T22:29:55.830Z,56.22
2023-02-06T22:32:25.695Z,59.20
2023-02-06T22:34:55.609Z,55.03
2023-02-06T22:37:28.257Z,60.80
2023-02-06T22:39:58.408Z,61.30
2023-02-06T22:42:28.528Z,56.17
2023-02-06T22:44:58.480Z,52.22
2023-02-06T22:47:28.430Z,59.58
2023-02-06T22:49:58.320Z,55.47
2023-02-06T22:52:45.120Z,63.15
2023-02-06T22:55:15.873Z,55.05
2023-02-06T22:57:45.749Z,56.53
2023-02-06T23:00:18.522Z,57.15
2023-02-06T23:02:48.479Z,68.57
2023-02-06T23:05:18.636Z,66.00
2023-02-06T23:07:51.070Z,69.95
2023-02-06T23:10:21.137Z,62.47
2023-02-06T23:12:51.015Z,60.58
2023-02-06T23:15:20.990Z,59.35
2023-02-06T23:17:52.750Z,72.15
2023-02-06T23:20:22.882Z,70.70
2023-02-06T23:22:55.317Z,76.25
2023-02-06T23:25:25.188Z,66.68
2023-02-06T23:27:55.090Z,74.32
2023-02-06T23:30:25.190Z,73.30
2023-02-06T23:32:55.325Z,71.80
2023-02-06T23:35:25.235Z,74.38
2023-02-06T23:37:57.714Z,76.75
2023-02-06T23:40:27.613Z,69.68
2023-02-06T23:42:57.531Z,63.03
2023-02-06T23:45:28.203Z,82.28
2023-02-06T23:47:58.305Z,73.05
2023-02-06T23:50:29.149Z,69.15
2023-02-06T23:53:01.594Z,71.00
2023-02-06T23:55:31.686Z,80.00
2023-02-06T23:58:01.585Z,83.13
